createdAt,value
2019-02-20T00:00:24.708Z,17.82
2019-02-20T00:02:55.727Z,14.95
2019-02-20T00:05:26.502Z,19.07
2019-02-20T00:07:58.605Z,12.58
2019-02-20T00:10:29.209Z,15.00
2019-02-20T00:13:06.221Z,16.73
2019-02-20T00:15:39.400Z,13.58
2019-02-20T00:18:08.726Z,17.98
2019-02-20T00:20:37.616Z,22.52
2019-02-20T00:23:09.291Z,19.70
2019-02-20T00:25:39.352Z,21.82
2019-02-20T00:28:11.043Z,21.42
2019-02-20T00:30:43.929Z,14.63
2019-02-20T00:33:12.806Z,17.00
2019-02-20T00:35:47.370Z,16.12
2019-02-20T00:38:18.346Z,13.35
2019-02-20T00:40:46.892Z,14.23
2019-02-20T00:43:15.798Z,20.27
2019-02-20T00:46:08.434Z,16.23
2019-02-20T00:48:46.114Z,19.62
2019-02-20T00:51:29.336Z,22.07
2019-02-20T00:54:02.731Z,16.57
2019-02-20T00:56:35.228Z,21.00
2019-02-20T00:59:04.610Z,18.27
2019-02-20T01:01:36.993Z,15.85
2019-02-20T01:04:09.780Z,13.03
2019-02-20T01:06:38.699Z,15.70
2019-02-20T01:09:09.076Z,18.95
2019-02-20T01:11:40.880Z,13.88
2019-02-20T01:14:13.181Z,16.87
2019-02-20T01:16:45.528Z,18.50
2019-02-20T01:19:14.285Z,19.85
2019-02-20T01:21:43.205Z,19.70
2019-02-20T01:24:17.374Z,18.10
2019-02-20T01:26:46.292Z,20.15
2019-02-20T01:29:15.052Z,23.60
2019-02-20T01:31:51.846Z,19.92
2019-02-20T01:34:24.214Z,16.85
2019-02-20T01:36:53.139Z,17.65
2019-02-20T01:39:25.574Z,17.12
2019-02-20T01:41:59.243Z,14.25
2019-02-20T01:46:57.535Z,18.90
2019-02-20T01:49:27.736Z,17.92
2019-02-20T01:51:56.904Z,14.95
2019-02-20T01:54:35.200Z,17.65
2019-02-20T01:57:07.227Z,14.53
2019-02-20T01:59:36.156Z,18.65
2019-02-20T02:02:05.591Z,18.60
2019-02-20T02:04:38.917Z,22.10
2019-02-20T02:07:07.887Z,15.72
2019-02-20T02:09:40.325Z,16.52
2019-02-20T02:12:10.560Z,19.50
2019-02-20T02:14:42.742Z,17.57
2019-02-20T02:17:16.727Z,20.95
2019-02-20T02:19:48.717Z,17.25
2019-02-20T02:22:17.316Z,17.05
2019-02-20T02:24:46.292Z,20.77
2019-02-20T02:27:22.879Z,22.77
2019-02-20T02:29:58.074Z,17.12
2019-02-20T02:32:27.115Z,18.25
2019-02-20T02:35:00.722Z,16.73
2019-02-20T02:37:29.992Z,18.70
2019-02-20T02:39:59.226Z,23.40
2019-02-20T02:42:28.792Z,18.25
2019-02-20T02:45:02.337Z,21.27
2019-02-20T02:47:36.303Z,20.37
2019-02-20T02:50:04.940Z,22.50
2019-02-20T02:52:33.909Z,23.22
2019-02-20T02:55:05.856Z,23.02
2019-02-20T02:57:39.497Z,31.27
2019-02-20T03:02:38.477Z,21.82
2019-02-20T03:05:11.758Z,20.23
2019-02-20T03:07:42.391Z,30.68
2019-02-20T03:10:14.589Z,21.23
2019-02-20T03:12:46.678Z,25.32
2019-02-20T03:15:17.608Z,23.15
2019-02-20T03:17:47.286Z,21.65
2019-02-20T03:20:17.920Z,19.50
2019-02-20T03:22:49.758Z,28.00
2019-02-20T03:25:19.102Z,26.73
2019-02-20T03:27:50.925Z,21.17
2019-02-20T03:30:23.519Z,27.25
2019-02-20T03:32:57.365Z,24.52
2019-02-20T03:35:29.525Z,28.47
2019-02-20T03:38:03.084Z,24.40
2019-02-20T03:40:36.843Z,23.92
2019-02-20T03:43:05.571Z,19.52
2019-02-20T03:45:34.213Z,24.07
2019-02-20T03:48:08.384Z,18.73
2019-02-20T03:50:38.543Z,22.55
2019-02-20T03:53:10.898Z,25.97
2019-02-20T03:55:43.384Z,26.17
2019-02-20T03:58:12.650Z,22.65
2019-02-20T04:00:43.216Z,27.50
2019-02-20T04:03:15.254Z,23.90
2019-02-20T04:05:46.015Z,22.10
2019-02-20T04:08:15.864Z,26.23
2019-02-20T04:10:47.605Z,23.27
2019-02-20T04:13:22.585Z,33.15
2019-02-20T04:15:54.575Z,25.23
2019-02-20T04:18:25.764Z,26.52
2019-02-20T04:20:57.821Z,27.30
2019-02-20T04:23:30.746Z,20.75
2019-02-20T04:26:09.853Z,26.85
2019-02-20T04:28:39.815Z,28.92
2019-02-20T04:31:10.430Z,31.27
2019-02-20T04:33:41.391Z,25.50
2019-02-20T04:36:14.160Z,25.12
2019-02-20T04:38:42.976Z,27.27
2019-02-20T04:41:13.856Z,33.85
2019-02-20T04:43:47.333Z,25.95
2019-02-20T04:46:16.977Z,24.45
2019-02-20T04:48:47.760Z,28.57
2019-02-20T04:51:24.122Z,31.95
2019-02-20T04:53:53.186Z,25.37
2019-02-20T04:56:22.380Z,34.15
2019-02-20T04:58:58.565Z,27.58
2019-02-20T05:01:29.741Z,28.27
2019-02-20T05:03:58.288Z,28.55
2019-02-20T05:06:26.879Z,30.32
2019-02-20T05:08:59.284Z,31.00
2019-02-20T05:11:31.826Z,30.70
2019-02-20T05:14:02.516Z,33.23
2019-02-20T05:16:32.768Z,28.77
2019-02-20T05:19:09.807Z,28.87
2019-02-20T05:21:42.430Z,33.90
2019-02-20T05:24:11.332Z,34.53
2019-02-20T05:26:42.270Z,29.07
2019-02-20T05:29:11.361Z,29.35
2019-02-20T05:31:45.200Z,36.65
2019-02-20T05:34:14.155Z,31.07
2019-02-20T05:36:42.705Z,35.20
2019-02-20T05:39:12.904Z,29.65
2019-02-20T05:41:43.352Z,30.95
2019-02-20T05:44:15.973Z,29.32
2019-02-20T05:46:46.624Z,30.77
2019-02-20T05:49:15.682Z,29.07
2019-02-20T05:51:48.103Z,28.70
2019-02-20T05:54:22.556Z,34.13
2019-02-20T05:56:54.765Z,27.87
2019-02-20T05:59:28.249Z,36.98
2019-02-20T06:01:58.797Z,27.95
2019-02-20T06:04:29.415Z,37.23
2019-02-20T06:06:58.524Z,30.62
2019-02-20T06:09:31.418Z,29.37
2019-02-20T06:12:03.618Z,35.30
2019-02-20T06:14:37.723Z,28.52
2019-02-20T06:17:09.768Z,30.05
2019-02-20T06:19:40.395Z,34.92
2019-02-20T06:22:15.241Z,33.75
2019-02-20T06:24:50.254Z,32.33
2019-02-20T06:27:20.939Z,32.75
2019-02-20T06:29:49.893Z,34.33
2019-02-20T06:32:24.001Z,25.68
2019-02-20T06:35:37.227Z,35.83
2019-02-20T06:38:36.596Z,29.20
2019-02-20T06:41:53.051Z,31.20
2019-02-20T06:44:58.657Z,33.13
2019-02-20T06:47:53.758Z,30.48
2019-02-20T06:51:04.566Z,29.10
2019-02-20T06:54:05.826Z,31.25
2019-02-20T06:56:54.619Z,35.52
2019-02-20T06:59:23.556Z,30.35
2019-02-20T07:01:56.387Z,27.15
2019-02-20T07:04:25.244Z,32.03
2019-02-20T07:07:37.315Z,33.45
2019-02-20T07:10:51.920Z,29.82
2019-02-20T07:13:43.963Z,32.05
2019-02-20T07:17:03.085Z,24.37
2019-02-20T07:20:13.679Z,26.68
2019-02-20T07:22:50.617Z,35.13
2019-02-20T07:25:28.705Z,30.95
2019-02-20T07:28:27.940Z,33.28
2019-02-20T07:30:58.912Z,25.55
2019-02-20T07:33:31.830Z,27.87
2019-02-20T07:36:02.033Z,27.17
2019-02-20T07:38:32.877Z,28.92
2019-02-20T07:41:03.256Z,24.02
2019-02-20T07:43:34.939Z,30.60
2019-02-20T07:46:03.646Z,23.50
2019-02-20T07:48:32.717Z,24.47
2019-02-20T07:51:01.516Z,23.15
2019-02-20T07:53:31.572Z,28.12
2019-02-20T07:56:00.134Z,25.97
2019-02-20T07:58:30.694Z,23.62
2019-02-20T08:00:59.647Z,24.65
2019-02-20T08:03:31.939Z,30.48
2019-02-20T08:06:02.569Z,22.75
2019-02-20T08:08:32.495Z,29.12
2019-02-20T08:11:02.160Z,30.50
2019-02-20T08:13:39.088Z,29.48
2019-02-20T08:16:05.519Z,28.60
2019-02-20T08:18:35.765Z,36.25
2019-02-20T08:21:04.721Z,21.17
2019-02-20T08:23:37.891Z,25.70
2019-02-20T08:26:08.079Z,32.60
2019-02-20T08:28:38.228Z,28.07
2019-02-20T08:31:06.782Z,25.48
2019-02-20T08:33:36.708Z,28.50
2019-02-20T08:36:05.850Z,24.65
2019-02-20T08:38:34.433Z,29.18
2019-02-20T08:41:03.128Z,23.90
2019-02-20T08:43:33.783Z,35.83
2019-02-20T08:46:04.087Z,23.40
2019-02-20T08:48:33.175Z,22.75
2019-02-20T08:51:02.027Z,30.12
2019-02-20T08:53:30.771Z,30.15
2019-02-20T08:56:04.377Z,23.07
2019-02-20T09:01:06.097Z,24.30
2019-02-20T09:03:35.346Z,33.28
2019-02-20T09:06:04.610Z,26.48
2019-02-20T09:08:33.942Z,23.50
2019-02-20T09:11:02.527Z,22.77
2019-02-20T09:13:35.378Z,22.93
2019-02-20T09:16:04.213Z,27.90
2019-02-20T09:18:38.796Z,37.95
2019-02-20T09:21:15.129Z,24.67
2019-02-20T09:23:50.305Z,23.00
2019-02-20T09:26:21.050Z,18.40
2019-02-20T09:28:50.742Z,19.62
2019-02-20T09:31:22.396Z,27.22
2019-02-20T09:33:53.170Z,19.07
2019-02-20T09:36:27.174Z,21.17
2019-02-20T09:38:56.096Z,17.02
2019-02-20T09:41:24.950Z,18.40
2019-02-20T09:43:55.481Z,20.97
2019-02-20T09:46:25.911Z,21.87
2019-02-20T09:48:56.131Z,21.23
2019-02-20T09:51:26.676Z,17.27
2019-02-20T09:53:58.907Z,19.27
2019-02-20T09:56:29.473Z,24.15
2019-02-20T09:58:59.620Z,17.07
2019-02-20T10:01:29.900Z,23.15
2019-02-20T10:03:59.642Z,13.50
2019-02-20T10:06:28.780Z,21.20
2019-02-20T10:09:00.665Z,15.32
2019-02-20T10:11:30.182Z,18.23
2019-02-20T10:14:00.826Z,16.48
2019-02-20T10:16:32.668Z,14.55
2019-02-20T10:19:02.565Z,15.10
2019-02-20T10:21:34.695Z,18.50
2019-02-20T10:24:06.290Z,18.62
2019-02-20T10:26:36.999Z,21.97
2019-02-20T10:29:09.311Z,18.20
2019-02-20T10:31:40.050Z,32.93
2019-02-20T10:34:08.943Z,17.12
2019-02-20T10:36:37.747Z,17.20
2019-02-20T10:39:06.915Z,20.12
2019-02-20T10:41:40.371Z,22.87
2019-02-20T10:44:12.597Z,12.20
2019-02-20T10:46:44.175Z,18.80
2019-02-20T10:49:14.672Z,18.07
2019-02-20T10:51:44.900Z,13.75
2019-02-20T10:54:13.443Z,19.90
2019-02-20T10:56:42.007Z,16.55
2019-02-20T10:59:12.578Z,15.28
2019-02-20T11:01:41.522Z,16.23
2019-02-20T11:04:10.240Z,17.67
2019-02-20T11:06:44.221Z,19.37
2019-02-20T11:09:14.672Z,22.62
2019-02-20T11:11:44.564Z,14.38
2019-02-20T11:14:15.229Z,16.75
2019-02-20T11:16:45.552Z,16.75
2019-02-20T11:19:17.502Z,10.45
2019-02-20T11:21:50.657Z,14.28
2019-02-20T11:24:24.882Z,10.85
2019-02-20T11:26:55.597Z,11.65
2019-02-20T11:29:26.135Z,10.13
2019-02-20T11:31:58.342Z,10.55
2019-02-20T11:34:29.041Z,13.90
2019-02-20T11:36:59.584Z,7.62
2019-02-20T11:39:37.703Z,13.83
2019-02-20T11:42:04.858Z,17.35
2019-02-20T11:44:33.411Z,17.10
2019-02-20T11:47:03.435Z,10.95
2019-02-20T11:49:34.134Z,14.73
2019-02-20T11:52:04.905Z,13.85
2019-02-20T11:54:35.428Z,13.50
2019-02-20T11:57:07.601Z,14.80
2019-02-20T11:59:38.517Z,12.63
2019-02-20T12:02:10.842Z,15.63
2019-02-20T12:04:39.568Z,11.63
2019-02-20T12:07:08.289Z,11.97
2019-02-20T12:09:38.809Z,11.05
2019-02-20T12:12:09.522Z,12.55
2019-02-20T12:14:40.414Z,12.82
2019-02-20T12:17:10.729Z,11.43
2019-02-20T12:19:40.831Z,9.80
2019-02-20T12:22:10.110Z,13.68
2019-02-20T12:24:38.657Z,11.05
2019-02-20T12:30:26.339Z,10.90
2019-02-20T12:32:56.868Z,11.25
2019-02-20T12:35:25.744Z,15.80
2019-02-20T12:37:54.451Z,9.90
2019-02-20T12:40:24.937Z,10.93
2019-02-20T12:42:53.892Z,10.78
2019-02-20T12:45:22.431Z,11.55
2019-02-20T12:47:53.671Z,9.58
2019-02-20T12:50:22.398Z,15.20
2019-02-20T12:52:51.313Z,11.18
2019-02-20T12:55:20.019Z,7.22
2019-02-20T12:57:50.119Z,10.38
2019-02-20T13:00:19.964Z,6.45
2019-02-20T13:02:50.520Z,7.60
2019-02-20T13:05:21.529Z,13.10
2019-02-20T13:07:50.804Z,9.70
2019-02-20T13:10:22.430Z,4.97
2019-02-20T13:12:52.598Z,11.40
2019-02-20T13:15:21.827Z,11.15
2019-02-20T13:17:53.763Z,12.20
2019-02-20T13:20:22.591Z,21.35
2019-02-20T13:22:52.842Z,13.40
2019-02-20T13:25:23.726Z,11.83
2019-02-20T13:27:56.596Z,11.05
2019-02-20T13:30:28.201Z,13.87
2019-02-20T13:32:56.961Z,11.48
2019-02-20T13:35:27.753Z,12.30
2019-02-20T13:38:00.014Z,12.53
2019-02-20T13:40:28.917Z,12.75
2019-02-20T13:42:59.031Z,12.93
2019-02-20T13:45:33.173Z,12.70
2019-02-20T13:48:02.804Z,13.30
2019-02-20T13:50:32.083Z,10.20
2019-02-20T13:53:01.128Z,11.20
2019-02-20T13:55:34.522Z,12.50
2019-02-20T13:58:03.520Z,20.68
2019-02-20T14:00:33.814Z,13.62
2019-02-20T14:03:03.092Z,12.50
2019-02-20T14:05:33.393Z,15.13
2019-02-20T14:08:02.289Z,13.22
2019-02-20T14:10:33.612Z,20.35
2019-02-20T14:13:02.839Z,14.25
2019-02-20T14:15:33.390Z,14.50
2019-02-20T14:18:04.232Z,16.35
2019-02-20T14:20:34.593Z,18.02
2019-02-20T14:23:03.319Z,15.72
2019-02-20T14:25:36.432Z,18.05
2019-02-20T14:28:05.175Z,15.20
2019-02-20T14:30:33.693Z,11.70
2019-02-20T14:33:02.881Z,18.12
2019-02-20T14:35:31.762Z,15.18
2019-02-20T14:38:00.649Z,17.07
2019-02-20T14:40:32.442Z,19.65
2019-02-20T14:43:01.411Z,17.00
2019-02-20T14:45:34.832Z,17.60
2019-02-20T14:48:07.411Z,15.08
2019-02-20T14:50:35.975Z,15.78
2019-02-20T14:53:08.143Z,14.00
2019-02-20T14:55:41.697Z,14.90
2019-02-20T14:58:15.457Z,17.92
2019-02-20T15:00:45.773Z,14.07
2019-02-20T15:03:16.226Z,13.20
2019-02-20T15:05:48.008Z,17.65
2019-02-20T15:08:19.930Z,21.12
2019-02-20T15:10:50.409Z,15.00
2019-02-20T15:13:24.910Z,14.80
2019-02-20T15:15:54.845Z,15.03
2019-02-20T15:18:25.286Z,16.35
2019-02-20T15:20:56.146Z,20.02
2019-02-20T15:23:27.191Z,13.45
2019-02-20T15:25:58.123Z,18.05
2019-02-20T15:28:30.482Z,19.77
2019-02-20T15:31:02.979Z,20.92
2019-02-20T15:33:35.417Z,17.23
2019-02-20T15:36:04.117Z,17.92
2019-02-20T15:38:34.699Z,15.20
2019-02-20T15:41:05.520Z,18.92
2019-02-20T15:43:35.091Z,14.07
2019-02-20T15:46:05.785Z,16.10
2019-02-20T15:48:36.600Z,16.70
2019-02-20T15:51:09.880Z,18.25
2019-02-20T15:53:38.770Z,16.23
2019-02-20T15:56:09.651Z,12.00
2019-02-20T15:58:40.566Z,16.23
2019-02-20T16:01:11.535Z,23.22
2019-02-20T16:03:44.311Z,19.95
2019-02-20T16:06:15.338Z,22.45
2019-02-20T16:08:46.059Z,17.75
2019-02-20T16:11:16.473Z,16.90
2019-02-20T16:13:47.275Z,18.15
2019-02-20T16:16:19.283Z,27.52
2019-02-20T16:18:52.996Z,18.87
2019-02-20T16:21:26.904Z,22.40
2019-02-20T16:26:31.475Z,20.68
2019-02-20T16:29:04.195Z,19.57
2019-02-20T16:31:35.004Z,14.23
2019-02-20T16:34:04.167Z,21.97
2019-02-20T16:36:37.817Z,18.40
2019-02-20T16:39:09.114Z,20.10
2019-02-20T16:41:39.663Z,20.60
2019-02-20T16:44:10.229Z,22.62
2019-02-20T16:46:39.486Z,19.27
2019-02-20T16:49:10.444Z,25.97
2019-02-20T16:51:39.557Z,19.32
2019-02-20T16:54:10.498Z,20.10
2019-02-20T16:56:39.045Z,17.62
2019-02-20T16:59:12.621Z,22.87
2019-02-20T17:01:43.783Z,21.57
2019-02-20T17:04:17.355Z,26.95
2019-02-20T17:06:46.089Z,27.77
2019-02-20T17:09:15.484Z,23.32
2019-02-20T17:11:45.437Z,27.52
2019-02-20T17:14:15.390Z,26.82
2019-02-20T17:16:44.508Z,21.45
2019-02-20T17:19:13.229Z,20.20
2019-02-20T17:21:46.055Z,26.60
2019-02-20T17:24:15.367Z,24.30
2019-02-20T17:26:43.932Z,22.15
2019-02-20T17:29:14.019Z,24.98
2019-02-20T17:31:45.121Z,25.45
2019-02-20T17:34:14.242Z,25.27
2019-02-20T17:36:44.473Z,20.30
2019-02-20T17:39:13.625Z,19.20
2019-02-20T17:41:42.369Z,19.75
2019-02-20T17:44:12.589Z,18.35
2019-02-20T17:46:42.809Z,18.45
2019-02-20T17:49:11.750Z,23.25
2019-02-20T17:51:40.651Z,19.65
2019-02-20T17:54:09.372Z,21.30
2019-02-20T17:56:37.959Z,21.52
2019-02-20T17:59:06.828Z,24.80
2019-02-20T18:01:37.407Z,22.50
2019-02-20T18:04:07.326Z,28.32
2019-02-20T18:06:36.451Z,19.82
2019-02-20T18:09:09.765Z,27.07
2019-02-20T18:11:40.415Z,24.47
2019-02-20T18:14:09.909Z,27.40
2019-02-20T18:16:40.514Z,22.07
2019-02-20T18:19:09.251Z,19.60
2019-02-20T18:21:39.116Z,23.60
2019-02-20T18:24:08.119Z,21.60
2019-02-20T18:26:36.665Z,26.30
2019-02-20T18:29:05.205Z,29.67
2019-02-20T18:31:38.239Z,23.60
2019-02-20T18:34:06.652Z,24.65
2019-02-20T18:36:37.313Z,28.07
2019-02-20T18:39:08.301Z,25.37
2019-02-20T18:41:37.914Z,25.27
2019-02-20T18:44:06.494Z,28.83
2019-02-20T18:46:35.399Z,26.30
2019-02-20T18:49:04.643Z,32.20
2019-02-20T18:51:35.046Z,33.30
2019-02-20T18:54:03.638Z,36.93
2019-02-20T18:56:34.150Z,29.85
2019-02-20T18:59:03.319Z,30.65
2019-02-20T19:01:34.216Z,30.60
2019-02-20T19:04:02.804Z,27.55
2019-02-20T19:06:35.931Z,25.75
2019-02-20T19:09:20.400Z,25.55
2019-02-20T19:12:21.683Z,24.98
2019-02-20T19:15:26.918Z,26.82
2019-02-20T19:18:20.249Z,28.70
2019-02-20T19:21:12.882Z,26.40
2019-02-20T19:24:33.983Z,26.30
2019-02-20T19:27:45.740Z,27.00
2019-02-20T19:30:50.901Z,27.22
2019-02-20T19:33:53.329Z,33.35
2019-02-20T19:36:59.270Z,32.45
2019-02-20T19:39:40.898Z,25.80
2019-02-20T19:42:35.160Z,26.57
2019-02-20T19:48:26.681Z,30.62
2019-02-20T19:51:41.190Z,29.63
2019-02-20T19:54:28.996Z,30.52
2019-02-20T19:57:24.699Z,33.85
2019-02-20T20:00:16.971Z,30.70
2019-02-20T20:03:30.964Z,33.05
2019-02-20T20:06:40.779Z,31.20
2019-02-20T20:09:29.603Z,24.43
2019-02-20T20:12:22.451Z,30.43
2019-02-20T20:15:05.797Z,34.45
2019-02-20T20:18:15.695Z,37.50
2019-02-20T20:21:14.420Z,27.55
2019-02-20T20:24:19.017Z,30.32
2019-02-20T20:30:04.710Z,30.97
2019-02-20T20:33:06.520Z,30.52
2019-02-20T20:36:08.387Z,30.45
2019-02-20T20:39:36.447Z,26.77
2019-02-20T20:42:48.482Z,31.75
2019-02-20T20:46:07.173Z,31.12
2019-02-20T20:49:09.747Z,32.15
2019-02-20T20:52:15.703Z,35.52
2019-02-20T20:55:19.498Z,38.58
2019-02-20T20:58:15.261Z,38.28
2019-02-20T21:01:25.336Z,35.33
2019-02-20T21:04:15.002Z,29.37
2019-02-20T21:06:56.131Z,33.23
2019-02-20T21:09:53.343Z,32.83
2019-02-20T21:12:48.444Z,30.40
2019-02-20T21:15:53.460Z,32.90
2019-02-20T21:18:44.940Z,30.62
2019-02-20T21:21:31.355Z,32.00
2019-02-20T21:24:39.858Z,34.58
2019-02-20T21:27:55.769Z,31.12
2019-02-20T21:31:15.170Z,30.52
2019-02-20T21:34:35.855Z,28.17
2019-02-20T21:37:37.695Z,32.28
2019-02-20T21:40:31.266Z,29.90
2019-02-20T21:43:14.403Z,36.10
2019-02-20T21:46:15.152Z,39.65
2019-02-20T21:49:28.880Z,67.27
2019-02-20T21:52:34.956Z,38.65
2019-02-20T21:55:31.358Z,34.53
2019-02-20T21:58:22.786Z,31.87
2019-02-20T22:01:27.868Z,35.45
2019-02-20T22:04:18.433Z,34.27
2019-02-20T22:07:32.895Z,35.75
2019-02-20T22:10:24.126Z,37.58
2019-02-20T22:13:27.703Z,35.63
2019-02-20T22:16:15.357Z,40.92
2019-02-20T22:19:16.658Z,43.17
2019-02-20T22:22:10.439Z,41.85
2019-02-20T22:25:16.084Z,36.05
2019-02-20T22:28:19.339Z,37.90
2019-02-20T22:31:29.159Z,31.10
2019-02-20T22:34:19.119Z,38.30
2019-02-20T22:37:31.375Z,34.30
2019-02-20T22:40:33.412Z,34.65
2019-02-20T22:43:40.695Z,42.05
2019-02-20T22:46:22.200Z,33.42
2019-02-20T22:49:01.780Z,36.70
2019-02-20T22:52:08.943Z,33.67
2019-02-20T22:55:23.858Z,39.45
2019-02-20T22:58:03.188Z,34.70
2019-02-20T23:01:12.594Z,37.17
2019-02-20T23:04:21.747Z,39.23
2019-02-20T23:07:30.448Z,41.25
2019-02-20T23:11:06.858Z,39.05
2019-02-20T23:14:19.241Z,35.17
2019-02-20T23:16:50.637Z,43.90
2019-02-20T23:19:19.523Z,42.30
2019-02-20T23:21:51.263Z,43.05
2019-02-20T23:24:23.702Z,42.00
2019-02-20T23:26:57.085Z,44.35
2019-02-20T23:29:26.130Z,35.75
2019-02-20T23:31:54.746Z,41.05
2019-02-20T23:34:24.794Z,35.58
2019-02-20T23:36:55.143Z,38.90
2019-02-20T23:39:23.696Z,42.53
2019-02-20T23:41:52.304Z,37.53
2019-02-20T23:44:20.914Z,40.78
2019-02-20T23:46:51.049Z,57.00
2019-02-20T23:49:19.628Z,54.40
2019-02-20T23:51:51.869Z,49.50
2019-02-20T23:54:23.343Z,47.80
2019-02-20T23:56:53.611Z,51.10
2019-02-20T23:59:25.261Z,55.12
